Time;durP1;ratioP1;P1;durP2;ratioP2;P2;SDS_P1;SDS_P2;PMS_P1;PMS_P2;Temp;Humidity;BMP_temperature;BMP_pressure;BME280_temperature;BME280_humidity;BME280_pressure;Samples;Min_cycle;Max_cycle;Signal;HPM_P1;HPM_P2
2022/08/17 00:00:21;;;;;;;1.98;1.85;;;19.30;99.90;;;;;;5125720;28;20320;-82
2022/08/17 00:03:10;;;;;;;0.90;0.85;;;19.20;99.90;;;;;;5125500;28;20016;-76
2022/08/17 00:05:43;;;;;;;1.08;0.85;;;19.10;99.90;;;;;;5131776;28;20084;-75
2022/08/17 00:08:11;;;;;;;1.50;1.40;;;19.10;99.90;;;;;;5129878;28;20226;-75
2022/08/17 00:10:37;;;;;;;2.72;1.10;;;19.00;99.90;;;;;;5130760;28;20024;-76
2022/08/17 00:13:26;;;;;;;0.80;0.80;;;19.00;99.90;;;;;;5128131;28;20020;-76
2022/08/17 00:15:57;;;;;;;2.13;2.00;;;18.90;99.90;;;;;;5130546;28;20042;-76
2022/08/17 00:18:23;;;;;;;1.23;1.10;;;18.90;99.90;;;;;;5127321;28;20031;-75
2022/08/17 00:20:48;;;;;;;0.73;0.70;;;19.00;99.90;;;;;;5129664;28;20057;-76
2022/08/17 00:23:16;;;;;;;1.33;1.15;;;19.00;99.90;;;;;;5126032;28;20084;-76
2022/08/17 00:25:43;;;;;;;2.42;2.00;;;19.00;99.90;;;;;;5109253;28;20041;-79
2022/08/17 00:28:10;;;;;;;0.77;0.70;;;19.10;99.90;;;;;;5127593;28;20055;-78
2022/08/17 00:30:36;;;;;;;1.05;1.05;;;19.20;99.90;;;;;;5110156;28;20028;-78
2022/08/17 00:33:09;;;;;;;3.80;2.05;;;19.20;99.90;;;;;;5106707;28;20246;-76
2022/08/17 00:35:35;;;;;;;1.70;1.60;;;19.30;99.90;;;;;;5125069;28;20024;-76
2022/08/17 00:38:02;;;;;;;0.90;0.80;;;19.30;99.90;;;;;;5124797;28;20079;-76
2022/08/17 00:40:28;;;;;;;0.73;0.65;;;19.30;99.90;;;;;;5124535;28;20046;-76
2022/08/17 00:42:54;;;;;;;1.20;1.10;;;19.30;99.90;;;;;;5125536;28;20312;-76
2022/08/17 00:45:21;;;;;;;0.65;0.65;;;19.40;99.90;;;;;;5126281;28;20020;-78
2022/08/17 00:47:48;;;;;;;7.70;1.67;;;19.40;99.90;;;;;;5102239;28;20050;-78
2022/08/17 00:50:17;;;;;;;0.75;0.75;;;19.30;99.90;;;;;;5124714;28;20020;-77
2022/08/17 00:52:51;;;;;;;1.15;1.05;;;19.30;99.90;;;;;;5124369;28;20026;-76
2022/08/17 00:55:17;;;;;;;1.67;1.58;;;19.30;99.90;;;;;;5125087;28;20059;-80
2022/08/17 00:57:49;;;;;;;0.93;0.93;;;19.10;99.90;;;;;;5123286;28;20026;-76
2022/08/17 01:00:25;;;;;;;0.98;0.98;;;19.10;99.90;;;;;;5124650;28;20020;-76
2022/08/17 01:02:58;;;;;;;10.00;1.63;;;19.00;99.90;;;;;;5124483;28;20012;-82
2022/08/17 01:05:26;;;;;;;1.67;1.58;;;19.20;99.90;;;;;;5105905;28;20019;-78
2022/08/17 01:07:53;;;;;;;1.30;0.73;;;19.30;99.90;;;;;;5123587;28;20019;-78
2022/08/17 01:10:23;;;;;;;2.50;0.95;;;19.30;99.90;;;;;;5105828;28;20101;-77
2022/08/17 01:12:48;;;;;;;0.82;0.82;;;19.30;99.90;;;;;;5123802;28;20019;-78
2022/08/17 01:15:15;;;;;;;0.63;0.60;;;19.20;99.90;;;;;;5105548;28;20041;-79
2022/08/17 01:17:42;;;;;;;0.40;0.40;;;19.20;99.90;;;;;;5123424;28;20019;-77
2022/08/17 01:20:08;;;;;;;1.33;0.45;;;19.10;99.90;;;;;;5123872;28;20016;-77
2022/08/17 01:22:34;;;;;;;1.27;0.90;;;19.10;99.90;;;;;;5122950;28;20028;-78
2022/08/17 01:25:01;;;;;;;1.27;1.15;;;19.10;99.90;;;;;;5105245;28;20054;-78
2022/08/17 01:27:28;;;;;;;3.83;2.30;;;19.10;99.90;;;;;;5123139;28;20028;-79
2022/08/17 01:29:58;;;;;;;0.70;0.70;;;19.00;99.90;;;;;;5105173;28;20034;-77
2022/08/17 01:32:26;;;;;;;0.77;0.52;;;19.10;99.90;;;;;;5123137;28;20047;-78
2022/08/17 01:34:53;;;;;;;0.68;0.68;;;19.00;99.90;;;;;;5105078;28;20035;-79
2022/08/17 01:37:26;;;;;;;2.15;1.50;;;18.90;99.90;;;;;;5105844;28;20019;-78
2022/08/17 01:39:58;;;;;;;1.35;1.13;;;18.80;99.90;;;;;;5123727;28;20064;-80
2022/08/17 01:43:00;;;;;;;0.75;0.75;;;18.70;99.90;;;;;;5123998;28;20020;-79
2022/08/17 01:45:30;;;;;;;1.00;0.82;;;18.70;99.90;;;;;;5123194;28;20061;-79
2022/08/17 01:47:56;;;;;;;0.95;0.90;;;18.70;99.90;;;;;;5105194;28;20015;-80
2022/08/17 01:50:29;;;;;;;1.85;1.52;;;18.70;99.90;;;;;;5123690;28;20077;-79
2022/08/17 01:53:01;;;;;;;0.93;0.93;;;18.60;99.90;;;;;;5122845;28;20220;-78
2022/08/17 01:55:37;;;;;;;1.05;0.95;;;18.70;99.90;;;;;;5105077;28;20038;-79
2022/08/17 01:58:07;;;;;;;3.10;1.35;;;18.60;99.90;;;;;;5105942;28;20026;-79
2022/08/17 02:00:33;;;;;;;1.15;0.77;;;18.60;99.90;;;;;;5123774;28;20027;-77
2022/08/17 02:02:59;;;;;;;1.30;0.80;;;18.60;99.90;;;;;;5105102;28;20058;-78
2022/08/17 02:05:26;;;;;;;2.53;0.95;;;18.60;99.90;;;;;;5123215;28;20365;-76
2022/08/17 02:07:51;;;;;;;0.65;0.65;;;18.50;99.90;;;;;;5124530;28;20235;-76
2022/08/17 02:10:17;;;;;;;0.68;0.68;;;18.50;99.90;;;;;;5130404;28;20024;-77
2022/08/17 02:12:43;;;;;;;0.85;0.77;;;18.50;99.90;;;;;;5111599;28;20022;-76
2022/08/17 02:15:11;;;;;;;0.68;0.68;;;18.40;99.90;;;;;;5129881;28;20347;-75
2022/08/17 02:17:39;;;;;;;1.67;0.88;;;18.30;99.90;;;;;;5111195;28;20027;-76
2022/08/17 02:20:07;;;;;;;0.65;0.50;;;18.30;99.90;;;;;;5129780;28;20030;-80
2022/08/17 02:22:35;;;;;;;0.55;0.55;;;18.20;99.90;;;;;;5130060;28;20308;-76
2022/08/17 02:25:02;;;;;;;1.77;1.67;;;18.20;99.90;;;;;;5130579;28;20102;-80
2022/08/17 02:27:28;;;;;;;2.15;1.83;;;18.20;99.90;;;;;;5111841;28;20019;-78
2022/08/17 02:29:53;;;;;;;2.92;1.45;;;18.20;99.90;;;;;;5130106;28;20027;-77
2022/08/17 02:32:23;;;;;;;1.60;0.90;;;18.20;99.90;;;;;;5129187;28;20200;-77
2022/08/17 02:34:49;;;;;;;0.82;0.82;;;18.30;99.90;;;;;;5129684;28;20023;-76
2022/08/17 02:37:18;;;;;;;1.63;0.63;;;18.30;99.90;;;;;;5129618;28;20019;-77
2022/08/17 02:39:44;;;;;;;1.38;1.27;;;18.30;99.90;;;;;;5112257;28;20026;-79
2022/08/17 02:42:12;;;;;;;1.08;0.55;;;18.30;99.90;;;;;;5129734;28;20055;-79
2022/08/17 02:44:39;;;;;;;0.65;0.65;;;18.30;99.90;;;;;;5130105;28;20020;-77
2022/08/17 02:47:05;;;;;;;1.20;1.10;;;18.30;99.90;;;;;;5110982;28;20031;-76
2022/08/17 02:49:31;;;;;;;7.43;2.05;;;18.20;99.90;;;;;;5130004;28;20016;-77
2022/08/17 02:51:57;;;;;;;2.47;1.33;;;18.20;99.90;;;;;;5130613;28;20050;-77
2022/08/17 02:54:24;;;;;;;1.20;0.88;;;18.20;99.90;;;;;;5130862;28;20047;-78
2022/08/17 02:56:50;;;;;;;0.75;0.75;;;18.10;99.90;;;;;;5130225;28;20016;-78
2022/08/17 02:59:16;;;;;;;0.63;0.57;;;18.00;99.90;;;;;;5129941;28;20034;-78
2022/08/17 03:01:42;;;;;;;0.70;0.70;;;17.90;99.90;;;;;;5129851;28;20028;-78
2022/08/17 03:04:07;;;;;;;8.75;0.88;;;17.80;99.90;;;;;;5112146;28;20031;-75
2022/08/17 03:06:34;;;;;;;1.05;0.70;;;17.80;99.90;;;;;;5129960;28;20093;-74
2022/08/17 03:08:59;;;;;;;1.42;1.23;;;17.70;99.90;;;;;;5129451;28;20035;-78
2022/08/17 03:11:25;;;;;;;0.63;0.63;;;17.60;99.90;;;;;;5129558;28;20086;-77
2022/08/17 03:13:51;;;;;;;1.10;1.10;;;17.60;99.90;;;;;;5130047;28;20030;-75
2022/08/17 03:16:16;;;;;;;0.85;0.85;;;17.60;99.90;;;;;;5111361;28;20023;-77
2022/08/17 03:18:42;;;;;;;0.75;0.57;;;17.60;99.90;;;;;;5129575;28;20077;-77
2022/08/17 03:21:08;;;;;;;1.00;1.00;;;17.50;99.90;;;;;;5106917;28;20019;-78
2022/08/17 03:23:39;;;;;;;2.42;1.35;;;17.50;99.90;;;;;;5126564;28;20028;-78
2022/08/17 03:26:09;;;;;;;0.50;0.50;;;17.50;99.90;;;;;;5125662;28;20019;-79
2022/08/17 03:28:39;;;;;;;0.77;0.77;;;17.30;99.90;;;;;;5125903;28;20311;-77
2022/08/17 03:31:05;;;;;;;0.68;0.68;;;17.30;99.90;;;;;;5127469;28;20023;-76
2022/08/17 03:33:31;;;;;;;0.70;0.70;;;17.30;99.90;;;;;;5126205;28;20043;-79
2022/08/17 03:35:57;;;;;;;0.82;0.82;;;17.30;99.90;;;;;;5126770;28;20015;-79
2022/08/17 03:38:24;;;;;;;0.88;0.88;;;17.20;99.90;;;;;;5125835;28;20031;-77
2022/08/17 03:40:50;;;;;;;1.13;1.00;;;17.20;99.90;;;;;;5125700;28;20016;-77
2022/08/17 03:43:17;;;;;;;1.02;0.75;;;17.10;99.90;;;;;;5125941;28;20027;-75
2022/08/17 03:57:06;;;;;;;0.75;0.70;;;17.10;99.90;;;;;;5126213;28;20088;-76
2022/08/17 03:59:32;;;;;;;1.10;0.95;;;17.10;99.90;;;;;;5106870;28;20027;-75
2022/08/17 04:02:03;;;;;;;1.73;0.73;;;17.10;99.90;;;;;;5107023;28;20014;-75
2022/08/17 04:04:29;;;;;;;1.58;1.48;;;17.10;99.90;;;;;;5125173;28;20020;-76
2022/08/17 04:06:55;;;;;;;0.70;0.70;;;17.10;99.90;;;;;;5106413;28;20027;-78
2022/08/17 04:09:20;;;;;;;2.03;1.83;;;17.10;99.90;;;;;;5106698;28;20023;-76
2022/08/17 04:11:46;;;;;;;1.17;0.80;;;17.10;99.90;;;;;;5124624;28;20255;-76
2022/08/17 04:14:12;;;;;;;4.00;1.35;;;17.10;99.90;;;;;;5106740;28;20112;-76
2022/08/17 04:16:38;;;;;;;1.00;0.90;;;17.10;99.90;;;;;;5124856;28;20031;-78
2022/08/17 04:19:05;;;;;;;1.50;1.40;;;17.20;99.90;;;;;;5107067;28;20020;-79
2022/08/17 04:21:31;;;;;;;1.10;1.10;;;17.30;99.90;;;;;;5107045;28;20019;-78
2022/08/17 04:23:57;;;;;;;1.45;1.42;;;17.30;99.90;;;;;;5106877;28;20023;-78
2022/08/17 04:26:23;;;;;;;0.57;0.57;;;17.30;99.90;;;;;;5125423;28;20265;-76
2022/08/17 04:28:48;;;;;;;2.30;1.30;;;17.40;99.90;;;;;;5125007;28;20032;-76
2022/08/17 04:31:15;;;;;;;0.88;0.88;;;17.40;99.90;;;;;;5125220;28;20193;-78
2022/08/17 04:33:44;;;;;;;1.13;0.90;;;17.40;99.90;;;;;;5106406;28;20430;-76
2022/08/17 04:36:13;;;;;;;0.70;0.70;;;17.30;99.90;;;;;;5125012;28;20023;-76
2022/08/17 04:38:41;;;;;;;0.77;0.77;;;17.30;99.90;;;;;;5106846;28;20028;-77
2022/08/17 04:43:57;;;;;;;1.35;1.25;;;17.40;99.90;;;;;;5063926;28;20103;-78
2022/08/17 04:46:31;;;;;;;0.65;0.65;;;17.30;99.90;;;;;;5107145;28;20323;-78
2022/08/17 04:48:57;;;;;;;1.23;1.20;;;17.30;99.90;;;;;;5116374;28;20479;-76
2022/08/17 04:51:28;;;;;;;1.52;1.10;;;17.30;99.90;;;;;;5115217;28;20033;-79
2022/08/17 04:53:58;;;;;;;1.25;1.15;;;17.30;99.90;;;;;;5096551;28;20039;-77
2022/08/17 04:56:25;;;;;;;1.13;1.02;;;17.30;99.90;;;;;;5096908;28;20422;-76
2022/08/17 04:58:53;;;;;;;1.27;1.20;;;17.40;99.90;;;;;;5114910;28;20474;-77
2022/08/17 05:01:21;;;;;;;0.93;0.93;;;17.40;99.90;;;;;;5115010;28;20495;-78
2022/08/17 05:03:47;;;;;;;4.05;1.95;;;17.30;99.90;;;;;;5114977;28;20094;-78
2022/08/17 05:06:12;;;;;;;1.40;1.02;;;17.30;99.90;;;;;;5114997;28;20015;-78
2022/08/17 05:08:38;;;;;;;1.30;1.20;;;17.30;99.90;;;;;;5114698;28;20464;-78
2022/08/17 05:11:04;;;;;;;5.57;2.10;;;17.30;99.90;;;;;;5114820;28;20097;-78
2022/08/17 05:13:30;;;;;;;0.80;0.80;;;17.30;99.90;;;;;;5114855;28;20062;-79
2022/08/17 05:15:59;;;;;;;0.98;0.90;;;17.40;99.90;;;;;;5096521;28;20118;-76
2022/08/17 05:18:27;;;;;;;0.90;0.90;;;17.50;99.90;;;;;;5114762;28;20024;-78
2022/08/17 05:20:53;;;;;;;1.55;1.45;;;17.60;99.90;;;;;;5096418;28;20023;-78
2022/08/17 05:23:20;;;;;;;2.80;1.48;;;17.60;99.90;;;;;;5114399;28;20024;-78
2022/08/17 05:25:49;;;;;;;3.10;1.50;;;17.70;99.90;;;;;;5096269;28;20027;-76
2022/08/17 05:28:17;;;;;;;1.30;1.25;;;17.70;99.90;;;;;;5096281;28;20106;-76
2022/08/17 05:30:44;;;;;;;2.38;1.13;;;17.80;99.90;;;;;;5114295;28;20028;-79
2022/08/17 05:33:16;;;;;;;0.65;0.65;;;17.80;99.90;;;;;;5096310;28;20030;-80
2022/08/17 05:35:45;;;;;;;1.02;1.02;;;17.90;99.90;;;;;;5096112;28;20034;-78
2022/08/17 05:38:12;;;;;;;0.98;0.98;;;17.90;99.90;;;;;;5096086;28;20068;-75
2022/08/17 05:40:38;;;;;;;3.10;2.30;;;18.00;99.90;;;;;;5114126;28;20407;-77
2022/08/17 05:43:16;;;;;;;1.05;1.05;;;18.00;99.90;;;;;;5113627;28;20020;-75
2022/08/17 05:45:59;;;;;;;0.98;0.85;;;18.10;99.90;;;;;;5114033;28;20495;-77
2022/08/17 05:48:25;;;;;;;1.15;1.05;;;18.20;99.90;;;;;;5114134;28;20035;-77
2022/08/17 05:51:14;;;;;;;0.77;0.77;;;18.20;99.90;;;;;;5114091;28;20523;-76
2022/08/17 05:54:02;;;;;;;0.75;0.75;;;18.30;99.90;;;;;;5095686;28;20055;-76
2022/08/17 05:57:23;;;;;;;1.70;1.43;;;18.40;99.90;;;;;;5095897;28;20365;-76
2022/08/17 06:00:12;;;;;;;1.60;0.73;;;18.40;99.90;;;;;;5110594;28;20027;-76
2022/08/17 06:02:40;;;;;;;5.22;2.65;;;18.40;99.90;;;;;;5102898;28;20043;-77
2022/08/17 06:05:28;;;;;;;0.80;0.80;;;18.40;99.90;;;;;;5095674;28;20028;-76
2022/08/17 06:08:20;;;;;;;1.67;1.58;;;18.50;99.90;;;;;;5113837;28;20266;-75
2022/08/17 06:10:54;;;;;;;1.10;1.05;;;18.60;99.90;;;;;;5113844;28;20023;-75
2022/08/17 06:13:50;;;;;;;0.50;0.50;;;18.70;99.90;;;;;;5095690;28;20019;-77
2022/08/17 06:16:23;;;;;;;1.30;0.85;;;18.80;99.90;;;;;;5113916;28;20052;-77
2022/08/17 06:19:02;;;;;;;1.80;0.95;;;18.90;99.90;;;;;;5095471;28;20153;-77
2022/08/17 06:21:31;;;;;;;;;;;18.80;99.90;;;;;;5114220;28;20023;-77
2022/08/17 06:24:27;;;;;;;0.77;0.77;;;18.90;99.90;;;;;;5114266;28;19911;-76
2022/08/17 06:26:56;;;;;;;1.25;0.63;;;19.10;99.90;;;;;;5114140;28;20020;-77
2022/08/17 06:29:40;;;;;;;2.88;1.48;;;19.20;99.90;;;;;;5113883;28;20023;-77
2022/08/17 06:32:09;;;;;;;0.40;0.40;;;19.20;99.90;;;;;;5095400;28;20432;-76
2022/08/17 06:34:36;;;;;;;;;;;19.20;99.90;;;;;;5095572;28;20036;-77
2022/08/17 06:37:02;;;;;;;2.75;0.82;;;19.20;99.90;;;;;;5095534;28;19968;-77
2022/08/17 06:39:46;;;;;;;4.22;2.33;;;19.10;99.90;;;;;;5113771;28;20474;-77
2022/08/17 06:42:31;;;;;;;1.10;0.73;;;19.10;99.90;;;;;;5095450;28;20379;-76
2022/08/17 06:45:13;;;;;;;2.97;1.17;;;19.20;99.90;;;;;;5095375;28;20106;-77
2022/08/17 06:47:58;;;;;;;1.38;1.27;;;19.40;99.90;;;;;;5095437;28;20031;-75
2022/08/17 06:50:34;;;;;;;2.28;1.45;;;19.60;99.90;;;;;;5113547;28;20028;-77
2022/08/17 06:53:25;;;;;;;0.88;0.82;;;19.70;99.90;;;;;;5095083;28;20488;-78
2022/08/17 06:55:56;;;;;;;0.77;0.77;;;20.00;99.90;;;;;;5097277;28;20031;-77
2022/08/17 06:58:30;;;;;;;1.27;0.77;;;20.10;99.90;;;;;;5117378;28;20077;-77
2022/08/17 07:01:01;;;;;;;1.25;1.25;;;20.30;99.90;;;;;;5098987;28;20046;-77
2022/08/17 07:03:36;;;;;;;0.65;0.65;;;20.60;99.90;;;;;;5117021;28;20039;-76
2022/08/17 07:06:11;;;;;;;0.63;0.63;;;20.60;99.90;;;;;;5098959;28;20027;-77
2022/08/17 07:08:37;;;;;;;1.95;0.90;;;20.80;99.90;;;;;;5117161;28;20027;-78
2022/08/17 07:11:19;;;;;;;1.90;1.08;;;21.00;99.90;;;;;;5117124;28;20032;-78
2022/08/17 07:13:57;;;;;;;2.55;0.65;;;21.20;99.90;;;;;;5116895;28;20036;-76
2022/08/17 07:16:37;;;;;;;2.15;1.15;;;21.40;99.90;;;;;;5116986;28;20095;-77
2022/08/17 07:19:06;;;;;;;0.40;0.40;;;21.60;99.90;;;;;;5098731;28;20156;-77
2022/08/17 07:22:13;;;;;;;0.40;0.40;;;21.90;99.90;;;;;;5117022;28;20416;-76
2022/08/17 07:24:57;;;;;;;1.17;0.98;;;22.10;99.90;;;;;;5116836;28;20027;-77
2022/08/17 07:27:35;;;;;;;1.52;1.42;;;22.50;99.90;;;;;;5098486;28;20361;-75
2022/08/17 07:30:16;;;;;;;0.55;0.55;;;22.50;99.90;;;;;;5098516;28;20080;-77
2022/08/17 07:33:13;;;;;;;1.55;1.45;;;22.80;99.90;;;;;;5098280;28;20023;-76
2022/08/17 07:35:41;;;;;;;0.40;0.40;;;22.90;99.90;;;;;;5098933;28;20118;-78
2022/08/17 07:38:14;;;;;;;1.85;0.63;;;23.10;99.90;;;;;;5116669;28;20024;-76
2022/08/17 07:41:02;;;;;;;0.55;0.55;;;23.30;99.90;;;;;;5098239;28;20156;-79
2022/08/17 07:43:40;;;;;;;3.20;0.77;;;23.50;99.90;;;;;;5098239;28;20035;-77
2022/08/17 07:49:09;;;;;;;1.25;1.20;;;23.50;99.90;;;;;;5116617;28;20039;-78
2022/08/17 07:51:46;;;;;;;0.55;0.55;;;23.50;99.90;;;;;;5097930;28;20110;-77
2022/08/17 07:54:16;;;;;;;0.52;0.50;;;23.60;99.90;;;;;;5115950;28;20055;-77
2022/08/17 07:56:47;;;;;;;0.20;0.20;;;23.60;99.90;;;;;;5098021;28;20055;-78
2022/08/17 07:59:20;;;;;;;0.55;0.55;;;24.10;99.90;;;;;;5097820;28;20077;-76
2022/08/17 08:02:03;;;;;;;0.75;0.68;;;24.10;99.90;;;;;;5097855;28;20061;-76
2022/08/17 08:04:48;;;;;;;0.40;0.40;;;24.70;99.90;;;;;;5115885;28;20022;-76
2022/08/17 08:07:19;;;;;;;7.10;0.52;;;25.70;99.90;;;;;;5097087;28;20426;-76
2022/08/17 08:10:03;;;;;;;0.40;0.40;;;26.00;99.90;;;;;;5115939;28;20022;-77
2022/08/17 08:12:33;;;;;;;1.10;0.88;;;25.30;99.90;;;;;;5097884;28;20534;-77
2022/08/17 08:15:01;;;;;;;4.03;1.55;;;25.30;99.90;;;;;;5115820;28;20046;-77
2022/08/17 08:17:36;;;;;;;1.98;0.88;;;24.90;99.90;;;;;;5097821;28;20114;-78
2022/08/17 08:20:08;;;;;;;1.50;0.70;;;24.60;99.90;;;;;;5098450;28;20023;-78
2022/08/17 08:22:49;;;;;;;0.68;0.65;;;24.70;99.90;;;;;;5097026;28;20383;-77
2022/08/17 08:25:23;;;;;;;0.77;0.75;;;24.60;99.90;;;;;;5096452;28;20027;-77
2022/08/17 08:28:00;;;;;;;0.43;0.40;;;24.50;99.90;;;;;;5114845;28;20111;-77
2022/08/17 08:30:27;;;;;;;2.20;0.93;;;24.20;99.90;;;;;;5096352;28;20129;-77
2022/08/17 08:33:05;;;;;;;1.65;1.05;;;23.70;99.90;;;;;;5096295;28;20049;-78
2022/08/17 08:35:53;;;;;;;1.53;1.43;;;23.10;99.90;;;;;;5114689;28;20135;-77
2022/08/17 08:38:25;;;;;;;0.93;0.52;;;22.20;99.90;;;;;;5096278;28;20269;-77
2022/08/17 08:41:03;;;;;;;0.45;0.45;;;22.10;99.90;;;;;;5096125;28;20038;-75
2022/08/17 08:43:45;;;;;;;1.42;0.70;;;21.80;99.90;;;;;;5114518;28;20464;-78
2022/08/17 08:46:58;;;;;;;1.10;0.98;;;21.60;99.90;;;;;;5096340;28;20027;-76
2022/08/17 08:49:35;;;;;;;0.98;0.52;;;21.40;99.90;;;;;;5092962;28;20381;-77
2022/08/17 08:52:03;;;;;;;0.65;0.65;;;21.10;99.90;;;;;;5114580;28;20020;-77
2022/08/17 08:54:33;;;;;;;0.68;0.63;;;20.90;99.90;;;;;;5114136;28;20044;-77
2022/08/17 08:57:20;;;;;;;0.57;0.57;;;20.70;99.90;;;;;;5096151;28;20035;-76
2022/08/17 08:59:48;;;;;;;0.43;0.30;;;20.40;99.90;;;;;;5114615;28;20028;-77
2022/08/17 09:02:44;;;;;;;1.10;0.95;;;20.20;99.90;;;;;;5115009;28;20020;-80
2022/08/17 09:05:28;;;;;;;1.13;1.02;;;19.90;99.90;;;;;;5115160;28;20034;-78
2022/08/17 09:08:21;;;;;;;3.15;0.80;;;19.60;99.90;;;;;;5096873;28;20383;-78
2022/08/17 09:10:55;;;;;;;0.75;0.63;;;19.40;99.90;;;;;;5116207;28;20103;-77
2022/08/17 09:13:21;;;;;;;0.82;0.82;;;19.20;99.90;;;;;;5115380;28;20089;-78
2022/08/17 09:15:57;;;;;;;0.38;0.35;;;19.10;99.90;;;;;;5117739;28;20027;-81
2022/08/17 09:18:50;;;;;;;0.40;0.40;;;19.00;99.90;;;;;;5113194;28;20047;-77
2022/08/17 09:21:25;;;;;;;0.65;0.65;;;19.10;99.90;;;;;;5114160;28;20084;-78
2022/08/17 09:24:05;;;;;;;1.33;0.75;;;19.20;99.90;;;;;;5113906;28;20041;-78
2022/08/17 09:26:38;;;;;;;2.38;0.47;;;19.30;99.90;;;;;;5095701;28;20062;-78
2022/08/17 09:29:08;;;;;;;0.35;0.35;;;19.50;99.90;;;;;;5113873;28;20077;-78
2022/08/17 09:31:42;;;;;;;0.40;0.40;;;19.90;99.90;;;;;;5095611;28;20418;-77
2022/08/17 09:34:12;;;;;;;1.30;0.93;;;19.90;99.90;;;;;;5096634;28;20032;-76
2022/08/17 09:36:50;;;;;;;0.98;0.68;;;19.90;99.90;;;;;;5096068;28;20023;-78
2022/08/17 09:39:30;;;;;;;0.77;0.55;;;19.90;99.90;;;;;;5096004;28;20543;-78
2022/08/17 09:42:18;;;;;;;0.35;0.35;;;20.10;99.90;;;;;;5114350;28;20024;-78
2022/08/17 09:45:22;;;;;;;1.83;0.85;;;20.40;99.90;;;;;;5096059;28;20173;-78
2022/08/17 09:48:16;;;;;;;0.80;0.40;;;21.50;99.90;;;;;;5101193;28;20107;-78
2022/08/17 09:51:05;;;;;;;1.00;0.55;;;22.50;99.90;;;;;;5114243;28;20047;-78
2022/08/17 09:53:34;;;;;;;0.98;0.57;;;23.00;99.90;;;;;;5113758;28;20047;-77
2022/08/17 09:55:59;;;;;;;1.25;1.13;;;23.30;99.90;;;;;;5095889;28;20024;-77
2022/08/17 09:58:43;;;;;;;1.45;0.30;;;23.50;99.90;;;;;;5095813;28;20023;-77
2022/08/17 10:01:34;;;;;;;0.22;0.22;;;23.40;99.90;;;;;;5095747;28;20022;-77
2022/08/17 10:04:34;;;;;;;0.17;0.17;;;23.30;99.90;;;;;;5114070;28;20019;-77
2022/08/17 10:07:05;;;;;;;0.80;0.57;;;23.10;99.90;;;;;;5031449;28;20036;-78
2022/08/17 10:09:58;;;;;;;2.38;1.27;;;23.30;99.90;;;;;;5081960;28;20028;-78
2022/08/17 10:12:58;;;;;;;0.28;0.28;;;23.40;99.90;;;;;;5113914;28;20026;-78
2022/08/17 10:15:58;;;;;;;0.43;0.32;;;23.70;99.90;;;;;;5095987;28;20416;-79
2022/08/17 10:18:44;;;;;;;1.35;0.35;;;23.80;99.90;;;;;;5095692;28;20511;-78
2022/08/17 10:26:55;;;;;;;1.25;0.70;;;24.80;99.90;;;;;;5113770;28;20540;-78
2022/08/17 10:29:53;;;;;;;0.20;0.20;;;24.70;99.90;;;;;;5096901;28;20430;-78
2022/08/17 10:32:32;;;;;;;0.28;0.28;;;24.70;99.90;;;;;;5098819;28;20100;-78
2022/08/17 10:35:05;;;;;;;0.40;0.40;;;24.60;99.90;;;;;;5117874;28;20425;-78
2022/08/17 10:37:51;;;;;;;1.25;0.52;;;24.20;99.90;;;;;;5117651;28;20012;-78
2022/08/17 10:40:54;;;;;;;0.38;0.38;;;23.70;99.90;;;;;;5099358;28;20090;-79
2022/08/17 10:43:54;;;;;;;3.53;0.82;;;23.50;99.90;;;;;;5117639;28;20054;-77
2022/08/17 10:46:23;;;;;;;1.38;1.27;;;23.40;99.90;;;;;;5117492;28;20024;-79
2022/08/17 10:49:11;;;;;;;0.13;0.10;;;23.60;99.90;;;;;;5122156;28;20012;-79
2022/08/17 10:51:39;;;;;;;0.22;0.22;;;24.20;99.90;;;;;;5098937;28;20051;-76
2022/08/17 10:54:26;;;;;;;0.67;0.30;;;25.20;99.90;;;;;;5099379;28;20048;-76
2022/08/17 10:56:54;;;;;;;0.10;0.10;;;25.70;99.90;;;;;;5117049;28;20020;-76
2022/08/17 10:59:35;;;;;;;0.57;0.57;;;25.50;99.90;;;;;;5117253;28;20035;-76
2022/08/17 11:02:13;;;;;;;0.05;0.05;;;25.60;99.90;;;;;;5117347;28;20517;-76
2022/08/17 11:04:55;;;;;;;0.10;0.10;;;25.70;99.90;;;;;;5098622;28;20031;-77
2022/08/17 11:07:48;;;;;;;0.28;0.28;;;26.60;99.90;;;;;;5103097;28;20035;-77
2022/08/17 11:10:24;;;;;;;0.30;0.30;;;27.70;99.80;;;;;;5119883;28;20020;-77
2022/08/17 11:13:00;;;;;;;0.55;0.55;;;28.40;90.40;;;;;;5118955;28;20039;-78
2022/08/17 11:15:44;;;;;;;0.40;0.40;;;29.00;84.30;;;;;;5107426;28;20061;-76
2022/08/17 11:18:19;;;;;;;0.25;0.25;;;28.50;65.40;;;;;;5127426;28;20016;-76
2022/08/17 11:21:15;;;;;;;0.20;0.20;;;27.90;73.50;;;;;;5099018;28;20019;-77
2022/08/17 11:23:58;;;;;;;1.75;0.20;;;27.80;80.00;;;;;;5098309;28;20019;-77
2022/08/17 11:26:28;;;;;;;0.82;0.25;;;27.90;83.00;;;;;;5098305;28;20024;-77
2022/08/17 11:29:00;;;;;;;0.28;0.28;;;28.50;76.10;;;;;;5098172;28;20024;-77
2022/08/17 11:31:28;;;;;;;0.93;0.57;;;28.70;75.00;;;;;;5116523;28;20019;-78
2022/08/17 11:34:00;;;;;;;0.30;0.20;;;27.80;71.20;;;;;;5116471;28;20024;-77
2022/08/17 11:36:37;;;;;;;3.20;0.82;;;27.10;77.70;;;;;;5116425;28;20112;-77
2022/08/17 11:39:39;;;;;;;0.63;0.28;;;26.80;74.90;;;;;;5098082;28;20054;-77
2022/08/17 11:42:39;;;;;;;0.32;0.30;;;26.70;86.80;;;;;;5084488;28;20036;-76
2022/08/17 11:45:43;;;;;;;0.22;0.10;;;27.20;70.00;;;;;;5116266;28;20349;-77
2022/08/17 11:51:32;;;;;;;0.20;0.15;;;28.30;67.50;;;;;;5117306;28;20088;-77
2022/08/17 11:54:27;;;;;;;0.10;0.10;;;28.40;68.80;;;;;;5115840;28;20097;-77
2022/08/17 11:56:53;;;;;;;0.38;0.38;;;28.20;67.90;;;;;;5113691;28;20111;-77
2022/08/17 11:59:46;;;;;;;0.50;0.30;;;28.70;66.60;;;;;;5115913;28;20097;-79
2022/08/17 12:02:33;;;;;;;0.35;0.25;;;28.90;65.70;;;;;;5085407;28;20038;-77
2022/08/17 12:05:26;;;;;;;0.98;0.50;;;28.90;64.30;;;;;;5116219;28;20030;-78
2022/08/17 12:08:11;;;;;;;0.10;0.10;;;29.40;64.80;;;;;;5089093;28;20027;-77
2022/08/17 12:10:53;;;;;;;0.43;0.43;;;29.80;64.40;;;;;;5117382;28;20028;-77
2022/08/17 12:13:20;;;;;;;0.30;0.30;;;30.00;61.40;;;;;;5115850;28;20030;-79
2022/08/17 12:15:49;;;;;;;0.80;0.80;;;30.00;60.80;;;;;;5115660;28;20494;-78
2022/08/17 12:18:23;;;;;;;0.55;0.55;;;29.60;60.60;;;;;;5115472;28;20031;-77
2022/08/17 12:21:17;;;;;;;0.17;0.17;;;29.00;61.20;;;;;;5097283;28;20043;-77
2022/08/17 12:24:05;;;;;;;0.40;0.40;;;28.90;61.60;;;;;;5115673;28;20023;-78
2022/08/17 12:26:33;;;;;;;0.10;0.10;;;28.90;61.40;;;;;;5097128;28;20043;-79
2022/08/17 12:29:03;;;;;;;0.90;0.40;;;29.20;62.30;;;;;;5097166;28;20392;-78
2022/08/17 12:31:45;;;;;;;0.80;0.60;;;30.00;61.10;;;;;;5097142;28;20051;-77
2022/08/17 12:34:26;;;;;;;0.30;0.20;;;29.90;59.40;;;;;;5115182;28;20024;-76
2022/08/17 12:37:00;;;;;;;0.00;0.00;;;30.20;60.40;;;;;;5097030;28;20028;-78
2022/08/17 12:39:28;;;;;;;0.25;0.25;;;30.40;60.40;;;;;;5115246;28;20102;-79
2022/08/17 12:41:57;;;;;;;0.22;0.22;;;30.90;60.20;;;;;;5115177;28;20019;-78
2022/08/17 12:44:27;;;;;;;0.35;0.35;;;30.80;60.10;;;;;;5115199;28;20030;-76
2022/08/17 12:47:13;;;;;;;0.43;0.35;;;30.70;58.30;;;;;;5096815;28;20440;-76
2022/08/17 12:49:41;;;;;;;0.30;0.30;;;30.50;59.70;;;;;;5096652;28;20068;-78
2022/08/17 12:52:25;;;;;;;0.77;0.50;;;30.80;59.00;;;;;;5114476;28;20057;-76
2022/08/17 12:55:10;;;;;;;0.52;0.52;;;31.40;56.70;;;;;;5096286;28;20096;-78
2022/08/17 12:57:42;;;;;;;0.00;0.00;;;31.90;56.00;;;;;;5096529;28;20019;-78
2022/08/17 13:00:14;;;;;;;0.15;0.15;;;32.60;55.30;;;;;;5096506;28;20417;-78
2022/08/17 13:02:50;;;;;;;0.38;0.38;;;33.20;54.70;;;;;;5096535;28;20086;-76
2022/08/17 13:05:34;;;;;;;0.40;0.40;;;32.90;56.20;;;;;;5114812;28;20055;-78
2022/08/17 13:08:04;;;;;;;0.15;0.13;;;31.90;55.50;;;;;;5114655;28;20114;-77
2022/08/17 13:10:35;;;;;;;0.25;0.20;;;31.70;55.60;;;;;;5096194;28;20019;-78
2022/08/17 13:13:04;;;;;;;0.35;0.20;;;31.50;57.00;;;;;;5096162;28;20020;-78
2022/08/17 13:15:39;;;;;;;0.30;0.30;;;30.60;60.00;;;;;;5096141;28;20086;-77
2022/08/17 13:18:30;;;;;;;0.20;0.20;;;29.90;62.00;;;;;;5114494;28;20012;-78
2022/08/17 13:20:58;;;;;;;1.30;0.30;;;29.50;64.00;;;;;;5096931;28;20048;-77
2022/08/17 13:23:28;;;;;;;0.77;0.60;;;29.70;64.10;;;;;;5096241;28;20085;-77
2022/08/17 13:26:06;;;;;;;0.28;0.28;;;29.80;64.50;;;;;;5114173;28;20011;-76
2022/08/17 13:28:35;;;;;;;1.15;0.65;;;30.00;64.80;;;;;;5096520;28;20023;-77
2022/08/17 13:31:31;;;;;;;0.68;0.50;;;30.40;62.90;;;;;;5095904;28;20028;-77
2022/08/17 13:34:23;;;;;;;0.40;0.40;;;29.70;64.00;;;;;;5095914;28;20036;-78
2022/08/17 13:36:51;;;;;;;0.32;0.30;;;28.60;66.40;;;;;;5095889;28;20024;-78
2022/08/17 13:39:22;;;;;;;1.13;0.52;;;27.80;69.80;;;;;;5096007;28;20023;-78
2022/08/17 13:41:51;;;;;;;0.75;0.75;;;27.10;74.80;;;;;;5114101;28;20019;-76
2022/08/17 13:44:32;;;;;;;0.43;0.43;;;26.70;83.80;;;;;;5095846;28;20030;-76
2022/08/17 13:46:58;;;;;;;0.55;0.40;;;26.20;91.90;;;;;;5113916;28;20023;-76
2022/08/17 13:49:26;;;;;;;0.32;0.32;;;26.00;98.40;;;;;;5113545;28;20041;-79
2022/08/17 13:51:52;;;;;;;0.73;0.35;;;26.00;99.90;;;;;;5114016;28;20030;-77